createdAt,value
2019-05-01T00:02:15.419Z,8.47
2019-05-01T00:04:58.364Z,8.17
2019-05-01T00:07:29.245Z,7.97
2019-05-01T00:09:58.447Z,9.27
2019-05-01T00:12:27.777Z,9.23
2019-05-01T00:14:56.969Z,8.60
2019-05-01T00:17:27.759Z,10.00
2019-05-01T00:19:57.176Z,8.83
2019-05-01T00:22:26.415Z,7.43
2019-05-01T00:24:55.609Z,7.93
2019-05-01T00:27:24.906Z,7.83
2019-05-01T00:29:54.112Z,8.17
2019-05-01T00:32:23.349Z,8.47
2019-05-01T00:34:52.551Z,8.73
2019-05-01T00:37:21.759Z,8.70
2019-05-01T00:39:50.957Z,8.30
2019-05-01T00:42:20.168Z,7.63
2019-05-01T00:44:49.377Z,7.27
2019-05-01T00:47:18.687Z,9.20
2019-05-01T00:49:47.917Z,8.93
2019-05-01T00:52:17.118Z,9.70
2019-05-01T00:54:47.989Z,8.37
2019-05-01T00:57:24.835Z,9.90
2019-05-01T00:59:58.490Z,8.67
2019-05-01T01:02:29.359Z,9.53
2019-05-01T01:04:58.659Z,9.03
2019-05-01T01:07:27.868Z,9.53
2019-05-01T01:09:57.091Z,7.80
2019-05-01T01:12:26.296Z,8.00
2019-05-01T01:14:55.540Z,8.63
2019-05-01T01:17:24.742Z,8.23
2019-05-01T01:19:53.965Z,7.27
2019-05-01T01:22:23.174Z,8.57
2019-05-01T01:24:52.570Z,9.47
2019-05-01T01:27:21.778Z,8.53
2019-05-01T01:29:51.017Z,8.53
2019-05-01T01:32:20.217Z,8.23
2019-05-01T01:34:49.527Z,7.43
2019-05-01T01:37:18.731Z,7.87
2019-05-01T01:39:47.965Z,7.83
2019-05-01T01:42:17.171Z,7.17
2019-05-01T01:44:53.585Z,7.73
2019-05-01T01:47:22.793Z,7.40
2019-05-01T01:49:52.036Z,7.80
2019-05-01T01:52:21.251Z,7.80
2019-05-01T01:54:50.484Z,9.23
2019-05-01T01:57:19.705Z,7.93
2019-05-01T01:59:49.131Z,9.33
2019-05-01T02:02:29.245Z,8.80
2019-05-01T02:05:00.146Z,15.53
2019-05-01T02:07:29.348Z,7.63
2019-05-01T02:09:58.578Z,7.70
2019-05-01T02:12:27.788Z,7.10
2019-05-01T02:14:57.018Z,9.57
2019-05-01T02:17:26.243Z,9.03
2019-05-01T02:19:55.500Z,8.60
2019-05-01T02:22:24.710Z,9.13
2019-05-01T02:24:53.943Z,8.93
2019-05-01T02:27:24.781Z,9.23
2019-05-01T02:29:58.369Z,9.73
2019-05-01T02:32:28.928Z,8.57
2019-05-01T02:34:58.604Z,7.87
2019-05-01T02:37:27.817Z,8.97
2019-05-01T02:39:57.362Z,7.43
2019-05-01T02:42:27.528Z,9.43
2019-05-01T02:44:56.924Z,9.80
2019-05-01T02:47:29.695Z,9.30
2019-05-01T02:50:09.140Z,8.23
2019-05-01T02:52:38.410Z,6.93
2019-05-01T02:55:10.620Z,9.33
2019-05-01T02:57:39.826Z,8.13
2019-05-01T03:00:09.593Z,8.33
2019-05-01T03:02:38.841Z,7.70
2019-05-01T03:05:08.875Z,7.83
2019-05-01T03:07:38.098Z,7.80
2019-05-01T03:10:09.545Z,7.97
2019-05-01T03:12:41.543Z,8.23
2019-05-01T03:15:10.921Z,7.13
2019-05-01T03:17:41.773Z,9.77
2019-05-01T03:20:24.655Z,7.93
2019-05-01T03:23:11.731Z,8.37
2019-05-01T03:25:41.212Z,8.33
2019-05-01T03:28:10.593Z,8.47
2019-05-01T03:30:39.828Z,7.97
2019-05-01T03:33:09.041Z,7.77
2019-05-01T03:35:38.250Z,9.20
2019-05-01T03:38:07.448Z,7.93
2019-05-01T03:40:36.725Z,7.13
2019-05-01T03:43:05.947Z,8.63
2019-05-01T03:45:35.225Z,8.57
2019-05-01T03:48:04.627Z,8.40
2019-05-01T03:50:33.853Z,8.00
2019-05-01T03:53:03.154Z,9.13
2019-05-01T03:55:32.363Z,8.67
2019-05-01T03:58:01.742Z,9.50
2019-05-01T04:00:41.521Z,8.67
2019-05-01T04:03:21.604Z,8.93
2019-05-01T04:05:50.835Z,9.67
2019-05-01T04:08:20.041Z,8.43
2019-05-01T04:10:49.440Z,7.63
2019-05-01T04:13:18.650Z,9.30
2019-05-01T04:15:47.930Z,7.90
2019-05-01T04:18:17.164Z,8.10
2019-05-01T04:20:46.437Z,9.77
2019-05-01T04:23:15.682Z,7.57
2019-05-01T04:25:44.891Z,10.53
2019-05-01T04:28:25.658Z,10.00
2019-05-01T04:31:05.018Z,9.07
2019-05-01T04:33:35.498Z,8.60
2019-05-01T04:36:06.625Z,10.03
2019-05-01T04:38:35.848Z,7.53
2019-05-01T04:41:05.122Z,8.47
2019-05-01T04:43:34.459Z,8.47
2019-05-01T04:46:03.662Z,8.33
2019-05-01T04:48:32.898Z,8.77
2019-05-01T04:51:02.108Z,8.17
2019-05-01T04:53:31.371Z,8.40
2019-05-01T04:56:00.567Z,9.73
2019-05-01T04:58:29.784Z,7.97
2019-05-01T05:00:59.065Z,8.97
2019-05-01T05:03:28.543Z,9.63
2019-05-01T05:05:57.761Z,7.33
2019-05-01T05:08:26.995Z,9.10
2019-05-01T05:10:57.842Z,10.00
2019-05-01T05:13:34.730Z,8.87
2019-05-01T05:16:14.564Z,8.30
2019-05-01T05:18:43.939Z,8.87
2019-05-01T05:21:13.520Z,11.60
2019-05-01T05:23:42.744Z,9.77
2019-05-01T05:26:11.946Z,9.57
2019-05-01T05:28:41.276Z,9.20
2019-05-01T05:31:10.486Z,9.10
2019-05-01T05:33:39.721Z,8.30
2019-05-01T05:36:08.929Z,10.10
2019-05-01T05:38:39.822Z,10.07
2019-05-01T05:41:09.059Z,9.90
2019-05-01T05:43:38.289Z,9.30
2019-05-01T05:46:07.579Z,8.97
2019-05-01T05:48:36.828Z,9.20
2019-05-01T05:51:13.598Z,9.67
2019-05-01T05:53:59.801Z,10.50
2019-05-01T05:56:33.429Z,8.30
2019-05-01T05:59:07.848Z,9.53
2019-05-01T06:01:44.720Z,11.60
2019-05-01T06:04:32.878Z,11.00
2019-05-01T06:07:15.477Z,10.07
2019-05-01T06:09:48.448Z,10.27
2019-05-01T06:12:19.320Z,8.97
2019-05-01T06:15:02.321Z,8.23
2019-05-01T06:17:37.193Z,11.17
2019-05-01T06:20:20.783Z,11.47
2019-05-01T06:23:08.680Z,12.10
2019-05-01T06:25:42.007Z,11.00
2019-05-01T06:28:11.228Z,11.93
2019-05-01T06:30:42.097Z,10.23
2019-05-01T06:33:11.388Z,11.90
2019-05-01T06:35:40.591Z,9.37
2019-05-01T06:38:16.430Z,10.57
2019-05-01T06:40:47.572Z,10.87
2019-05-01T06:43:27.256Z,9.23
2019-05-01T06:45:59.963Z,12.50
2019-05-01T06:48:33.239Z,11.07
2019-05-01T06:51:13.036Z,11.47
2019-05-01T06:53:41.247Z,11.67
2019-05-01T06:56:10.694Z,12.30
2019-05-01T06:58:39.943Z,8.63
2019-05-01T07:01:09.225Z,14.40
2019-05-01T07:03:40.856Z,12.10
2019-05-01T07:06:14.357Z,11.60
2019-05-01T07:08:40.369Z,12.37
2019-05-01T07:11:10.886Z,12.23
2019-05-01T07:13:55.517Z,11.73
2019-05-01T07:16:23.843Z,12.27
2019-05-01T07:18:57.974Z,12.93
2019-05-01T07:21:27.376Z,11.80
2019-05-01T07:23:56.609Z,13.73
2019-05-01T07:26:25.857Z,11.63
2019-05-01T07:28:56.723Z,12.90
2019-05-01T07:31:30.855Z,14.17
2019-05-01T07:33:56.986Z,11.10
2019-05-01T07:36:26.227Z,13.00
2019-05-01T07:38:55.445Z,11.20
2019-05-01T07:41:24.683Z,14.10
2019-05-01T07:44:04.355Z,13.47
2019-05-01T07:46:35.226Z,12.03
2019-05-01T07:49:04.716Z,12.43
2019-05-01T07:51:37.676Z,11.80
2019-05-01T07:54:08.491Z,12.97
2019-05-01T07:56:35.861Z,13.43
2019-05-01T07:59:05.151Z,12.17
2019-05-01T08:01:42.029Z,13.37
2019-05-01T08:04:13.836Z,12.73
2019-05-01T08:06:42.354Z,14.30
2019-05-01T08:09:15.252Z,13.17
2019-05-01T08:11:44.197Z,14.13
2019-05-01T08:14:16.638Z,12.47
2019-05-01T08:16:44.441Z,15.60
2019-05-01T08:19:15.587Z,13.13
2019-05-01T08:21:57.008Z,12.87
2019-05-01T08:24:26.491Z,12.63
2019-05-01T08:26:57.943Z,13.73
2019-05-01T08:29:45.159Z,13.67
2019-05-01T08:32:33.720Z,14.53
2019-05-01T08:35:06.647Z,15.60
2019-05-01T08:37:35.879Z,14.23
2019-05-01T08:40:06.928Z,14.37
2019-05-01T08:42:37.754Z,14.27
2019-05-01T08:45:24.864Z,14.00
2019-05-01T08:48:10.630Z,12.67
2019-05-01T08:50:39.863Z,11.80
2019-05-01T08:53:09.111Z,17.43
2019-05-01T08:55:39.790Z,14.30
2019-05-01T08:58:14.143Z,10.77
2019-05-01T09:00:41.241Z,12.03
2019-05-01T09:03:13.611Z,11.17
2019-05-01T09:05:41.631Z,13.10
2019-05-01T09:08:10.847Z,11.53
2019-05-01T09:10:40.061Z,12.20
2019-05-01T09:13:09.282Z,12.80
2019-05-01T09:15:39.037Z,12.80
2019-05-01T09:18:08.287Z,15.13
2019-05-01T09:20:39.264Z,15.17
2019-05-01T09:23:09.476Z,15.00
2019-05-01T09:25:43.921Z,14.27
2019-05-01T09:28:31.132Z,15.50
2019-05-01T09:31:03.398Z,13.43
2019-05-01T09:33:33.023Z,16.33
2019-05-01T09:36:02.239Z,13.17
2019-05-01T09:38:31.455Z,13.60
2019-05-01T09:41:00.677Z,14.37
2019-05-01T09:43:31.015Z,16.43
2019-05-01T09:46:00.860Z,13.83
2019-05-01T09:48:30.106Z,13.87
2019-05-01T09:51:06.870Z,11.70
2019-05-01T09:53:41.213Z,12.47
2019-05-01T09:56:12.243Z,14.83
2019-05-01T09:58:41.548Z,11.73
2019-05-01T10:01:10.828Z,14.10
2019-05-01T10:03:40.059Z,14.50
2019-05-01T10:06:12.761Z,14.10
2019-05-01T10:08:41.870Z,12.20
2019-05-01T10:11:11.232Z,12.80
2019-05-01T10:13:40.463Z,12.93
2019-05-01T10:16:09.693Z,11.50
2019-05-01T10:18:38.907Z,9.37
2019-05-01T10:21:08.120Z,14.97
2019-05-01T10:23:37.363Z,11.73
2019-05-01T10:26:08.235Z,11.90
2019-05-01T10:28:49.978Z,10.93
2019-05-01T10:31:34.042Z,9.97
2019-05-01T10:34:07.565Z,9.57
2019-05-01T10:36:40.079Z,10.90
2019-05-01T10:39:10.203Z,9.70
2019-05-01T10:41:41.213Z,11.17
2019-05-01T10:44:10.366Z,10.73
2019-05-01T10:46:39.600Z,9.57
2019-05-01T10:49:08.847Z,9.07
2019-05-01T10:51:38.044Z,10.37
2019-05-01T10:54:07.272Z,10.73
2019-05-01T10:56:36.503Z,9.27
2019-05-01T10:59:05.720Z,14.40
2019-05-01T11:01:39.542Z,11.70
2019-05-01T11:04:08.811Z,9.23
2019-05-01T11:06:38.045Z,9.53
2019-05-01T11:09:07.812Z,12.00
2019-05-01T11:11:37.416Z,10.40
2019-05-01T11:14:06.681Z,11.43
2019-05-01T11:16:35.968Z,10.50
2019-05-01T11:19:05.421Z,9.40
2019-05-01T11:21:34.646Z,10.50
2019-05-01T11:24:03.876Z,9.80
2019-05-01T11:26:33.074Z,9.87
2019-05-01T11:29:02.320Z,10.17
2019-05-01T11:31:41.842Z,12.03
2019-05-01T11:34:28.842Z,13.17
2019-05-01T11:37:18.132Z,9.67
2019-05-01T11:39:57.687Z,8.30
2019-05-01T11:42:27.007Z,10.53
2019-05-01T11:44:56.191Z,11.43
2019-05-01T11:47:25.476Z,10.60
2019-05-01T11:49:54.698Z,10.97
2019-05-01T11:52:23.912Z,9.50
2019-05-01T11:54:53.120Z,9.87
2019-05-01T11:57:22.346Z,9.03
2019-05-01T11:59:51.551Z,9.67
2019-05-01T12:02:20.777Z,9.50
2019-05-01T12:04:49.983Z,12.03
2019-05-01T12:07:19.218Z,8.77
2019-05-01T12:09:48.428Z,10.23
2019-05-01T12:12:19.318Z,10.70
2019-05-01T12:14:48.514Z,9.30
2019-05-01T12:17:25.212Z,7.77
2019-05-01T12:19:54.439Z,8.87
2019-05-01T12:22:23.645Z,10.03
2019-05-01T12:24:52.884Z,12.67
2019-05-01T12:27:22.114Z,8.33
2019-05-01T12:29:51.317Z,7.40
2019-05-01T12:32:20.545Z,11.50
2019-05-01T12:34:49.758Z,9.37
2019-05-01T12:37:29.258Z,8.27
2019-05-01T12:39:58.533Z,8.57
2019-05-01T12:42:32.064Z,7.57
2019-05-01T12:45:01.299Z,7.30
2019-05-01T12:47:41.196Z,6.83
2019-05-01T12:50:10.841Z,8.20
2019-05-01T12:52:47.842Z,9.93
2019-05-01T12:55:21.544Z,9.37
2019-05-01T12:57:50.827Z,8.00
2019-05-01T13:00:23.455Z,8.80
2019-05-01T13:02:52.659Z,9.00
2019-05-01T13:05:21.887Z,9.90
2019-05-01T13:07:52.496Z,7.93
2019-05-01T13:10:21.863Z,8.17
2019-05-01T13:12:51.080Z,7.50
2019-05-01T13:15:20.296Z,8.80
2019-05-01T13:17:49.499Z,9.27
2019-05-01T13:20:18.733Z,10.90
2019-05-01T13:22:48.039Z,9.57
2019-05-01T13:25:17.275Z,7.97
2019-05-01T13:28:03.313Z,9.27
2019-05-01T13:30:34.187Z,8.60
2019-05-01T13:33:04.056Z,9.70
2019-05-01T13:35:33.599Z,8.80
2019-05-01T13:38:02.809Z,10.03
2019-05-01T13:40:32.026Z,9.97
2019-05-01T13:43:01.232Z,12.00
2019-05-01T13:45:30.469Z,7.67
2019-05-01T13:48:00.722Z,6.97
2019-05-01T13:50:29.989Z,8.37
2019-05-01T13:52:59.214Z,7.77
2019-05-01T13:55:28.413Z,7.77
2019-05-01T13:57:57.650Z,9.57
2019-05-01T14:00:27.124Z,5.70
2019-05-01T14:02:56.353Z,7.50
2019-05-01T14:05:26.228Z,8.83
2019-05-01T14:07:55.449Z,9.80
2019-05-01T14:10:24.650Z,7.43
2019-05-01T14:12:53.876Z,7.77
2019-05-01T14:15:23.078Z,7.67
2019-05-01T14:17:52.298Z,10.30
2019-05-01T14:20:39.648Z,8.87
2019-05-01T14:23:28.554Z,9.70
2019-05-01T14:26:04.548Z,7.07
2019-05-01T14:28:35.559Z,6.73
2019-05-01T14:31:06.051Z,7.40
2019-05-01T14:33:35.521Z,6.50
2019-05-01T14:36:07.762Z,8.73
2019-05-01T14:38:37.052Z,7.47
2019-05-01T14:41:06.389Z,7.17
2019-05-01T14:43:35.628Z,6.83
2019-05-01T14:46:04.841Z,8.87
2019-05-01T14:48:34.062Z,7.23
2019-05-01T14:51:03.287Z,7.77
2019-05-01T14:53:32.722Z,8.83
2019-05-01T14:56:01.937Z,8.17
2019-05-01T14:58:31.150Z,8.60
2019-05-01T15:01:00.403Z,7.20
2019-05-01T15:03:29.610Z,8.47
2019-05-01T15:05:58.854Z,6.40
2019-05-01T15:08:28.051Z,6.77
2019-05-01T15:10:57.253Z,8.63
2019-05-01T15:13:33.996Z,9.23
2019-05-01T15:16:04.844Z,7.73
2019-05-01T15:18:35.718Z,10.87
2019-05-01T15:21:04.933Z,7.03
2019-05-01T15:23:34.164Z,6.97
2019-05-01T15:26:03.363Z,6.87
2019-05-01T15:28:32.591Z,7.87
2019-05-01T15:31:01.796Z,6.07
2019-05-01T15:33:31.028Z,6.77
2019-05-01T15:36:00.225Z,9.20
2019-05-01T15:38:29.463Z,6.60
2019-05-01T15:41:12.297Z,6.17
2019-05-01T15:43:49.129Z,6.50
2019-05-01T15:46:18.424Z,8.20
2019-05-01T15:48:47.654Z,8.40
2019-05-01T15:51:16.866Z,5.83
2019-05-01T15:53:46.078Z,5.97
2019-05-01T15:56:16.965Z,6.60
2019-05-01T15:58:46.213Z,6.83
2019-05-01T16:01:15.435Z,5.73
2019-05-01T16:03:44.668Z,6.60
2019-05-01T16:06:13.900Z,7.57
2019-05-01T16:08:43.135Z,7.33
2019-05-01T16:11:19.701Z,7.50
2019-05-01T16:13:49.051Z,8.57
2019-05-01T16:16:18.317Z,7.27
2019-05-01T16:18:47.563Z,6.27
2019-05-01T16:21:18.400Z,6.23
2019-05-01T16:23:47.640Z,7.30
2019-05-01T16:26:16.832Z,7.33
2019-05-01T16:28:46.043Z,8.00
2019-05-01T16:31:18.387Z,7.27
2019-05-01T16:33:47.636Z,7.17
2019-05-01T16:36:16.843Z,7.10
2019-05-01T16:38:53.527Z,6.50
2019-05-01T16:41:22.754Z,6.03
2019-05-01T16:43:51.996Z,9.80
2019-05-01T16:46:21.234Z,7.40
2019-05-01T16:48:50.455Z,6.00
2019-05-01T16:51:19.681Z,6.47
2019-05-01T16:53:48.884Z,5.20
2019-05-01T16:56:18.118Z,8.73
2019-05-01T16:58:47.471Z,8.73
2019-05-01T17:01:27.713Z,6.90
2019-05-01T17:04:01.676Z,7.73
2019-05-01T17:06:41.627Z,8.07
2019-05-01T17:09:21.190Z,12.33
2019-05-01T17:11:50.431Z,7.50
2019-05-01T17:14:19.660Z,10.37
2019-05-01T17:16:48.900Z,10.87
2019-05-01T17:19:18.105Z,9.50
2019-05-01T17:21:47.339Z,10.27
2019-05-01T17:24:16.541Z,8.80
2019-05-01T17:26:45.759Z,8.13
2019-05-01T17:29:14.964Z,9.60
2019-05-01T17:31:44.197Z,9.53
2019-05-01T17:34:13.498Z,8.80
2019-05-01T17:36:42.716Z,10.53
2019-05-01T17:39:12.894Z,9.03
2019-05-01T17:41:42.127Z,8.83
2019-05-01T17:44:11.333Z,9.10
2019-05-01T17:46:41.978Z,8.53
2019-05-01T17:49:11.506Z,8.87
2019-05-01T17:51:42.638Z,9.67
2019-05-01T17:54:11.740Z,10.83
2019-05-01T17:56:40.969Z,6.57
2019-05-01T17:59:10.172Z,6.63
2019-05-01T18:01:41.037Z,9.00
2019-05-01T18:04:24.077Z,7.83
2019-05-01T18:06:53.324Z,8.00
2019-05-01T18:09:22.530Z,8.87
2019-05-01T18:11:52.675Z,9.10
2019-05-01T18:14:22.700Z,7.90
2019-05-01T18:16:51.955Z,6.23
2019-05-01T18:19:21.161Z,6.80
2019-05-01T18:21:53.555Z,6.87
2019-05-01T18:24:27.123Z,9.90
2019-05-01T18:27:03.886Z,8.37
2019-05-01T18:29:44.481Z,7.27
2019-05-01T18:32:16.093Z,9.27
2019-05-01T18:34:45.373Z,8.90
2019-05-01T18:37:16.245Z,10.13
2019-05-01T18:39:47.118Z,7.87
2019-05-01T18:42:17.987Z,8.50
2019-05-01T18:44:48.752Z,9.23
2019-05-01T18:47:18.234Z,6.50
2019-05-01T18:49:47.653Z,6.43
2019-05-01T18:52:17.259Z,6.83
2019-05-01T18:54:46.488Z,8.43
2019-05-01T18:57:15.726Z,7.03
2019-05-01T18:59:44.937Z,7.87
2019-05-01T19:02:14.236Z,8.67
2019-05-01T19:04:43.536Z,7.70
2019-05-01T19:07:14.451Z,7.63
2019-05-01T19:09:43.694Z,7.00
2019-05-01T19:12:16.071Z,8.13
2019-05-01T19:14:45.306Z,6.70
2019-05-01T19:17:16.177Z,10.07
2019-05-01T19:19:45.472Z,8.23
2019-05-01T19:22:17.599Z,7.60
2019-05-01T19:24:46.868Z,8.27
2019-05-01T19:27:19.079Z,8.37
2019-05-01T19:29:47.231Z,7.00
2019-05-01T19:32:16.723Z,8.73
2019-05-01T19:34:45.990Z,6.43
2019-05-01T19:37:21.821Z,9.80
2019-05-01T19:39:49.110Z,9.30
2019-05-01T19:42:21.571Z,8.63
2019-05-01T19:44:50.912Z,6.80
2019-05-01T19:47:20.961Z,7.13
2019-05-01T19:49:50.165Z,10.40
2019-05-01T19:52:19.386Z,9.73
2019-05-01T19:54:48.604Z,7.33
2019-05-01T19:57:17.969Z,8.57
2019-05-01T19:59:47.212Z,7.33
2019-05-01T20:02:22.197Z,10.83
2019-05-01T20:04:50.444Z,7.53
2019-05-01T20:07:21.600Z,7.80
2019-05-01T20:09:56.911Z,11.20
2019-05-01T20:12:22.046Z,8.37
2019-05-01T20:14:51.244Z,12.13
2019-05-01T20:17:20.462Z,8.17
2019-05-01T20:19:49.663Z,9.27
2019-05-01T20:22:18.897Z,11.27
2019-05-01T20:24:48.099Z,10.70
2019-05-01T20:27:17.334Z,13.90
2019-05-01T20:29:46.542Z,11.13
2019-05-01T20:32:15.766Z,8.50
2019-05-01T20:34:47.994Z,10.33
2019-05-01T20:37:15.880Z,10.77
2019-05-01T20:39:45.110Z,8.10
2019-05-01T20:42:14.322Z,12.63
2019-05-01T20:44:43.556Z,14.13
2019-05-01T20:47:12.793Z,12.60
2019-05-01T20:49:42.545Z,13.23
2019-05-01T20:52:11.865Z,10.57
2019-05-01T20:54:41.095Z,8.93
2019-05-01T20:57:13.542Z,11.63
2019-05-01T20:59:42.877Z,9.20
2019-05-01T21:02:12.151Z,10.23
2019-05-01T21:04:58.145Z,9.67
2019-05-01T21:07:29.554Z,9.57
2019-05-01T21:10:00.646Z,9.30
2019-05-01T21:12:29.989Z,10.33
2019-05-01T21:14:59.213Z,9.63
2019-05-01T21:17:28.423Z,10.33
2019-05-01T21:19:57.688Z,10.70
2019-05-01T21:22:26.901Z,9.93
2019-05-01T21:24:56.634Z,11.43
2019-05-01T21:27:25.900Z,10.03
2019-05-01T21:29:55.122Z,10.80
2019-05-01T21:32:27.430Z,7.23
2019-05-01T21:34:55.353Z,7.90
2019-05-01T21:37:24.557Z,10.87
2019-05-01T21:39:53.874Z,9.70
2019-05-01T21:42:24.457Z,10.07
2019-05-01T21:44:54.043Z,9.10
2019-05-01T21:47:23.738Z,10.27
2019-05-01T21:49:53.168Z,8.87
2019-05-01T21:52:26.319Z,9.90
2019-05-01T21:54:55.347Z,10.27
2019-05-01T21:57:24.602Z,9.57
2019-05-01T21:59:55.428Z,11.13
2019-05-01T22:02:24.660Z,10.37
2019-05-01T22:04:54.034Z,8.70
2019-05-01T22:07:23.864Z,8.47
2019-05-01T22:09:54.196Z,10.97
2019-05-01T22:12:23.677Z,10.43
2019-05-01T22:14:54.515Z,9.80
2019-05-01T22:17:40.113Z,9.47
2019-05-01T22:20:10.991Z,10.57
2019-05-01T22:22:47.864Z,13.50
2019-05-01T22:25:21.241Z,10.43
2019-05-01T22:27:58.087Z,11.47
2019-05-01T22:30:42.396Z,10.07
2019-05-01T22:33:08.949Z,8.17
2019-05-01T22:35:39.821Z,10.07
2019-05-01T22:38:09.024Z,9.27
2019-05-01T22:40:39.952Z,10.60
2019-05-01T22:43:09.221Z,8.83
2019-05-01T22:45:38.515Z,10.00
2019-05-01T22:48:07.722Z,12.47
2019-05-01T22:50:36.960Z,9.40
2019-05-01T22:53:07.802Z,10.37
2019-05-01T22:55:37.480Z,8.57
2019-05-01T22:58:06.667Z,8.80
2019-05-01T23:00:52.267Z,8.77
2019-05-01T23:03:23.103Z,9.20
2019-05-01T23:05:52.328Z,8.60
2019-05-01T23:08:21.533Z,11.13
2019-05-01T23:10:50.754Z,10.00
2019-05-01T23:13:19.957Z,8.70
2019-05-01T23:15:51.440Z,8.17
2019-05-01T23:18:20.439Z,7.30
2019-05-01T23:20:49.658Z,9.33
2019-05-01T23:23:18.859Z,8.50
2019-05-01T23:25:48.081Z,9.47
2019-05-01T23:28:17.315Z,8.57
2019-05-01T23:30:46.581Z,8.93
2019-05-01T23:33:15.806Z,9.83
2019-05-01T23:35:45.036Z,10.83
2019-05-01T23:38:14.231Z,10.23
2019-05-01T23:40:46.199Z,8.97
2019-05-01T23:43:14.389Z,10.03
2019-05-01T23:45:43.663Z,10.37
2019-05-01T23:48:12.897Z,10.40
2019-05-01T23:50:42.366Z,10.13
2019-05-01T23:53:13.856Z,8.70
2019-05-01T23:55:42.621Z,10.60
2019-05-01T23:58:11.843Z,14.87
